sensor_id;sensor_type;location;lat;lon;timestamp;temperature;humidity
53264;DHT22;39153;52.680;6.172;2023-12-14T00:01:44;6.30;99.90
53264;DHT22;39153;52.680;6.172;2023-12-14T00:04:11;6.70;99.90
53264;DHT22;39153;52.680;6.172;2023-12-14T00:06:37;6.40;99.90
53264;DHT22;39153;52.680;6.172;2023-12-14T00:09:03;6.40;99.90
53264;DHT22;39153;52.680;6.172;2023-12-14T00:11:29;6.60;99.90
53264;DHT22;39153;52.680;6.172;2023-12-14T00:13:54;6.40;99.90
53264;DHT22;39153;52.680;6.172;2023-12-14T00:16:20;6.30;99.90
53264;DHT22;39153;52.680;6.172;2023-12-14T00:18:46;6.30;99.90
53264;DHT22;39153;52.680;6.172;2023-12-14T00:21:11;6.60;99.90
53264;DHT22;39153;52.680;6.172;2023-12-14T00:23:37;6.60;99.90
53264;DHT22;39153;52.680;6.172;2023-12-14T00:26:03;6.20;99.90
53264;DHT22;39153;52.680;6.172;2023-12-14T00:28:29;6.40;99.90
53264;DHT22;39153;52.680;6.172;2023-12-14T00:30:54;6.20;99.90
53264;DHT22;39153;52.680;6.172;2023-12-14T00:33:20;6.30;99.90
53264;DHT22;39153;52.680;6.172;2023-12-14T00:35:46;6.70;99.90
53264;DHT22;39153;52.680;6.172;2023-12-14T00:38:11;6.30;99.90
53264;DHT22;39153;52.680;6.172;2023-12-14T00:40:37;6.50;99.90
53264;DHT22;39153;52.680;6.172;2023-12-14T00:43:03;6.50;99.90
53264;DHT22;39153;52.680;6.172;2023-12-14T00:45:28;6.70;99.90
53264;DHT22;39153;52.680;6.172;2023-12-14T00:47:54;6.20;99.90
53264;DHT22;39153;52.680;6.172;2023-12-14T00:50:20;6.20;99.90
53264;DHT22;39153;52.680;6.172;2023-12-14T00:52:45;6.70;99.90
53264;DHT22;39153;52.680;6.172;2023-12-14T00:55:11;6.70;99.90
53264;DHT22;39153;52.680;6.172;2023-12-14T00:57:37;6.20;99.90
53264;DHT22;39153;52.680;6.172;2023-12-14T01:00:02;6.70;99.90
53264;DHT22;39153;52.680;6.172;2023-12-14T01:02:29;6.70;99.90
53264;DHT22;39153;52.680;6.172;2023-12-14T01:04:54;6.60;99.90
53264;DHT22;39153;52.680;6.172;2023-12-14T01:07:20;6.80;99.90
53264;DHT22;39153;52.680;6.172;2023-12-14T01:09:46;6.60;99.90
53264;DHT22;39153;52.680;6.172;2023-12-14T01:12:11;6.20;99.90
53264;DHT22;39153;52.680;6.172;2023-12-14T01:14:37;6.30;99.90
53264;DHT22;39153;52.680;6.172;2023-12-14T01:17:03;6.60;99.90
53264;DHT22;39153;52.680;6.172;2023-12-14T01:19:28;6.50;99.90
53264;DHT22;39153;52.680;6.172;2023-12-14T01:21:54;6.50;99.90
53264;DHT22;39153;52.680;6.172;2023-12-14T01:24:20;6.80;99.90
53264;DHT22;39153;52.680;6.172;2023-12-14T01:26:46;6.30;99.90
53264;DHT22;39153;52.680;6.172;2023-12-14T01:29:12;6.40;99.90
53264;DHT22;39153;52.680;6.172;2023-12-14T01:31:37;6.10;99.90
53264;DHT22;39153;52.680;6.172;2023-12-14T01:34:03;6.50;99.90
53264;DHT22;39153;52.680;6.172;2023-12-14T01:36:29;6.60;99.90
53264;DHT22;39153;52.680;6.172;2023-12-14T01:38:54;6.60;99.90
53264;DHT22;39153;52.680;6.172;2023-12-14T01:41:20;6.60;99.90
53264;DHT22;39153;52.680;6.172;2023-12-14T01:43:46;6.10;99.90
53264;DHT22;39153;52.680;6.172;2023-12-14T01:46:11;6.70;99.90
53264;DHT22;39153;52.680;6.172;2023-12-14T01:48:38;6.60;99.90
53264;DHT22;39153;52.680;6.172;2023-12-14T01:51:04;6.30;99.90
53264;DHT22;39153;52.680;6.172;2023-12-14T01:53:30;6.00;99.90
53264;DHT22;39153;52.680;6.172;2023-12-14T01:55:56;6.70;99.90
53264;DHT22;39153;52.680;6.172;2023-12-14T01:58:21;6.00;99.90
53264;DHT22;39153;52.680;6.172;2023-12-14T02:01:22;6.70;99.90
53264;DHT22;39153;52.680;6.172;2023-12-14T02:03:51;6.10;99.90
53264;DHT22;39153;52.680;6.172;2023-12-14T02:06:18;6.00;99.90
53264;DHT22;39153;52.680;6.172;2023-12-14T02:08:43;6.00;99.90
53264;DHT22;39153;52.680;6.172;2023-12-14T02:11:10;6.40;99.90
53264;DHT22;39153;52.680;6.172;2023-12-14T02:13:35;5.90;99.90
53264;DHT22;39153;52.680;6.172;2023-12-14T02:16:01;6.40;99.90
53264;DHT22;39153;52.680;6.172;2023-12-14T02:18:27;6.50;99.90
53264;DHT22;39153;52.680;6.172;2023-12-14T02:20:53;6.90;99.90
53264;DHT22;39153;52.680;6.172;2023-12-14T02:23:18;6.40;99.90
53264;DHT22;39153;52.680;6.172;2023-12-14T02:25:44;6.50;99.90
53264;DHT22;39153;52.680;6.172;2023-12-14T02:28:09;6.10;99.90
53264;DHT22;39153;52.680;6.172;2023-12-14T02:30:35;5.90;99.90
53264;DHT22;39153;52.680;6.172;2023-12-14T02:33:01;6.50;99.90
53264;DHT22;39153;52.680;6.172;2023-12-14T02:35:26;6.20;99.90
53264;DHT22;39153;52.680;6.172;2023-12-14T02:37:52;6.00;99.90
53264;DHT22;39153;52.680;6.172;2023-12-14T02:40:18;5.80;99.90
53264;DHT22;39153;52.680;6.172;2023-12-14T02:42:43;5.90;99.90
53264;DHT22;39153;52.680;6.172;2023-12-14T02:45:09;6.70;99.90
53264;DHT22;39153;52.680;6.172;2023-12-14T02:47:35;6.50;99.90
53264;DHT22;39153;52.680;6.172;2023-12-14T02:50:01;6.00;99.90
53264;DHT22;39153;52.680;6.172;2023-12-14T02:52:26;6.70;99.90
53264;DHT22;39153;52.680;6.172;2023-12-14T02:54:52;6.40;99.90
53264;DHT22;39153;52.680;6.172;2023-12-14T02:57:18;6.60;99.90
53264;DHT22;39153;52.680;6.172;2023-12-14T02:59:44;6.40;99.90
53264;DHT22;39153;52.680;6.172;2023-12-14T03:02:10;6.30;99.90
53264;DHT22;39153;52.680;6.172;2023-12-14T03:04:38;6.30;99.90
53264;DHT22;39153;52.680;6.172;2023-12-14T03:07:05;6.30;99.90
53264;DHT22;39153;52.680;6.172;2023-12-14T03:09:31;6.20;99.90
53264;DHT22;39153;52.680;6.172;2023-12-14T03:11:57;5.90;99.90
53264;DHT22;39153;52.680;6.172;2023-12-14T03:14:23;6.10;99.90
53264;DHT22;39153;52.680;6.172;2023-12-14T03:16:49;5.70;99.90
53264;DHT22;39153;52.680;6.172;2023-12-14T03:19:17;6.00;99.90
53264;DHT22;39153;52.680;6.172;2023-12-14T03:21:43;6.00;99.90
53264;DHT22;39153;52.680;6.172;2023-12-14T03:24:09;6.30;99.90
53264;DHT22;39153;52.680;6.172;2023-12-14T03:26:37;5.90;99.90
53264;DHT22;39153;52.680;6.172;2023-12-14T03:29:03;6.30;99.90
53264;DHT22;39153;52.680;6.172;2023-12-14T03:31:29;6.10;99.90
53264;DHT22;39153;52.680;6.172;2023-12-14T03:33:54;6.20;99.90
53264;DHT22;39153;52.680;6.172;2023-12-14T03:36:20;6.10;99.90
53264;DHT22;39153;52.680;6.172;2023-12-14T03:38:48;5.70;99.90
53264;DHT22;39153;52.680;6.172;2023-12-14T03:41:13;5.80;99.90
53264;DHT22;39153;52.680;6.172;2023-12-14T03:43:39;5.80;99.90
53264;DHT22;39153;52.680;6.172;2023-12-14T03:46:05;6.00;99.90
53264;DHT22;39153;52.680;6.172;2023-12-14T03:48:32;5.80;99.90
53264;DHT22;39153;52.680;6.172;2023-12-14T03:50:57;5.90;99.90
53264;DHT22;39153;52.680;6.172;2023-12-14T03:53:23;5.70;99.90
53264;DHT22;39153;52.680;6.172;2023-12-14T03:55:49;6.00;99.90
53264;DHT22;39153;52.680;6.172;2023-12-14T03:58:14;5.70;99.90
53264;DHT22;39153;52.680;6.172;2023-12-14T04:00:40;5.90;99.90
53264;DHT22;39153;52.680;6.172;2023-12-14T04:03:05;6.10;99.90
53264;DHT22;39153;52.680;6.172;2023-12-14T04:05:31;5.80;99.90
53264;DHT22;39153;52.680;6.172;2023-12-14T04:07:57;5.80;99.90
53264;DHT22;39153;52.680;6.172;2023-12-14T04:10:22;5.80;99.90
53264;DHT22;39153;52.680;6.172;2023-12-14T04:12:48;6.10;99.90
53264;DHT22;39153;52.680;6.172;2023-12-14T04:15:14;6.10;99.90
53264;DHT22;39153;52.680;6.172;2023-12-14T04:17:39;6.10;99.90
53264;DHT22;39153;52.680;6.172;2023-12-14T04:20:05;6.20;99.90
53264;DHT22;39153;52.680;6.172;2023-12-14T04:22:31;5.70;99.90
53264;DHT22;39153;52.680;6.172;2023-12-14T04:24:57;6.10;99.90
53264;DHT22;39153;52.680;6.172;2023-12-14T04:27:23;6.20;99.90
53264;DHT22;39153;52.680;6.172;2023-12-14T04:29:52;6.00;99.90
53264;DHT22;39153;52.680;6.172;2023-12-14T04:32:18;6.00;99.90
53264;DHT22;39153;52.680;6.172;2023-12-14T04:34:44;6.10;99.90
53264;DHT22;39153;52.680;6.172;2023-12-14T04:37:09;5.90;99.90
53264;DHT22;39153;52.680;6.172;2023-12-14T04:39:35;6.20;99.90
53264;DHT22;39153;52.680;6.172;2023-12-14T04:42:01;5.70;99.90
53264;DHT22;39153;52.680;6.172;2023-12-14T04:44:26;5.90;99.90
53264;DHT22;39153;52.680;6.172;2023-12-14T04:46:52;6.00;99.90
53264;DHT22;39153;52.680;6.172;2023-12-14T04:49:18;5.60;99.90
53264;DHT22;39153;52.680;6.172;2023-12-14T04:51:45;5.80;99.90
53264;DHT22;39153;52.680;6.172;2023-12-14T04:54:11;5.70;99.90
53264;DHT22;39153;52.680;6.172;2023-12-14T04:56:36;5.60;99.90
53264;DHT22;39153;52.680;6.172;2023-12-14T04:59:02;5.50;99.90
53264;DHT22;39153;52.680;6.172;2023-12-14T05:01:27;5.90;99.90
53264;DHT22;39153;52.680;6.172;2023-12-14T05:03:53;6.10;99.90
53264;DHT22;39153;52.680;6.172;2023-12-14T05:06:19;5.70;99.90
53264;DHT22;39153;52.680;6.172;2023-12-14T05:08:45;6.00;99.90
53264;DHT22;39153;52.680;6.172;2023-12-14T05:11:12;5.70;99.90
53264;DHT22;39153;52.680;6.172;2023-12-14T05:13:38;5.90;99.90
53264;DHT22;39153;52.680;6.172;2023-12-14T05:16:04;5.90;99.90
53264;DHT22;39153;52.680;6.172;2023-12-14T05:18:30;5.60;99.90
53264;DHT22;39153;52.680;6.172;2023-12-14T05:20:55;5.50;99.90
53264;DHT22;39153;52.680;6.172;2023-12-14T05:23:21;6.20;99.90
53264;DHT22;39153;52.680;6.172;2023-12-14T05:25:47;6.20;99.90
53264;DHT22;39153;52.680;6.172;2023-12-14T05:28:13;5.70;99.90
53264;DHT22;39153;52.680;6.172;2023-12-14T05:30:38;6.00;99.90
53264;DHT22;39153;52.680;6.172;2023-12-14T05:33:04;5.70;99.90
53264;DHT22;39153;52.680;6.172;2023-12-14T05:35:30;6.00;99.90
53264;DHT22;39153;52.680;6.172;2023-12-14T05:37:56;6.10;99.90
53264;DHT22;39153;52.680;6.172;2023-12-14T05:40:22;5.70;99.90
53264;DHT22;39153;52.680;6.172;2023-12-14T05:42:47;5.70;99.90
53264;DHT22;39153;52.680;6.172;2023-12-14T05:45:13;5.60;99.90
53264;DHT22;39153;52.680;6.172;2023-12-14T05:47:39;6.00;99.90
53264;DHT22;39153;52.680;6.172;2023-12-14T05:50:07;5.80;99.90
53264;DHT22;39153;52.680;6.172;2023-12-14T05:52:35;6.10;99.90
53264;DHT22;39153;52.680;6.172;2023-12-14T05:55:01;5.70;99.90
53264;DHT22;39153;52.680;6.172;2023-12-14T05:57:27;6.00;99.90
53264;DHT22;39153;52.680;6.172;2023-12-14T05:59:53;5.60;99.90
53264;DHT22;39153;52.680;6.172;2023-12-14T06:02:18;5.80;99.90
53264;DHT22;39153;52.680;6.172;2023-12-14T06:04:44;5.60;99.90
53264;DHT22;39153;52.680;6.172;2023-12-14T06:07:10;5.60;99.90
53264;DHT22;39153;52.680;6.172;2023-12-14T06:09:36;5.70;99.90
53264;DHT22;39153;52.680;6.172;2023-12-14T06:12:02;5.90;99.90
53264;DHT22;39153;52.680;6.172;2023-12-14T06:14:28;6.00;99.90
53264;DHT22;39153;52.680;6.172;2023-12-14T06:16:54;6.10;99.90
53264;DHT22;39153;52.680;6.172;2023-12-14T06:19:20;5.90;99.90
53264;DHT22;39153;52.680;6.172;2023-12-14T06:21:46;5.90;99.90
53264;DHT22;39153;52.680;6.172;2023-12-14T06:24:11;5.70;99.90
53264;DHT22;39153;52.680;6.172;2023-12-14T06:26:41;6.00;99.90
53264;DHT22;39153;52.680;6.172;2023-12-14T06:29:07;6.20;99.90
53264;DHT22;39153;52.680;6.172;2023-12-14T06:31:33;5.60;99.90
53264;DHT22;39153;52.680;6.172;2023-12-14T06:33:58;5.70;99.90
53264;DHT22;39153;52.680;6.172;2023-12-14T06:36:26;6.00;99.90
53264;DHT22;39153;52.680;6.172;2023-12-14T06:38:55;5.80;99.90
53264;DHT22;39153;52.680;6.172;2023-12-14T06:41:22;5.60;99.90
53264;DHT22;39153;52.680;6.172;2023-12-14T06:43:48;5.50;99.90
53264;DHT22;39153;52.680;6.172;2023-12-14T06:46:15;6.10;99.90
53264;DHT22;39153;52.680;6.172;2023-12-14T06:48:41;5.80;99.90
53264;DHT22;39153;52.680;6.172;2023-12-14T06:51:07;6.00;99.90
53264;DHT22;39153;52.680;6.172;2023-12-14T06:53:33;5.90;99.90
53264;DHT22;39153;52.680;6.172;2023-12-14T06:55:59;5.90;99.90
53264;DHT22;39153;52.680;6.172;2023-12-14T06:58:25;5.80;99.90
53264;DHT22;39153;52.680;6.172;2023-12-14T07:00:50;5.90;99.90
53264;DHT22;39153;52.680;6.172;2023-12-14T07:03:16;6.10;99.90
53264;DHT22;39153;52.680;6.172;2023-12-14T07:05:42;5.90;99.90
53264;DHT22;39153;52.680;6.172;2023-12-14T07:08:07;6.20;99.90
53264;DHT22;39153;52.680;6.172;2023-12-14T07:10:34;5.80;99.90
53264;DHT22;39153;52.680;6.172;2023-12-14T07:12:59;6.50;99.90
53264;DHT22;39153;52.680;6.172;2023-12-14T07:15:25;5.90;99.90
53264;DHT22;39153;52.680;6.172;2023-12-14T07:17:51;6.10;99.90
53264;DHT22;39153;52.680;6.172;2023-12-14T07:20:16;5.90;99.90
53264;DHT22;39153;52.680;6.172;2023-12-14T07:22:42;6.50;99.90
53264;DHT22;39153;52.680;6.172;2023-12-14T07:25:08;6.50;99.90
53264;DHT22;39153;52.680;6.172;2023-12-14T07:27:34;6.00;99.90
53264;DHT22;39153;52.680;6.172;2023-12-14T07:30:00;5.90;99.90
53264;DHT22;39153;52.680;6.172;2023-12-14T07:32:25;5.90;99.90
53264;DHT22;39153;52.680;6.172;2023-12-14T07:34:52;6.00;99.90
53264;DHT22;39153;52.680;6.172;2023-12-14T07:37:18;6.00;99.90
53264;DHT22;39153;52.680;6.172;2023-12-14T07:39:44;5.80;99.90
53264;DHT22;39153;52.680;6.172;2023-12-14T07:42:10;6.00;99.90
53264;DHT22;39153;52.680;6.172;2023-12-14T07:44:37;5.70;99.90
53264;DHT22;39153;52.680;6.172;2023-12-14T07:47:03;6.00;99.90
53264;DHT22;39153;52.680;6.172;2023-12-14T07:49:28;6.00;99.90
53264;DHT22;39153;52.680;6.172;2023-12-14T07:51:54;5.60;99.90
53264;DHT22;39153;52.680;6.172;2023-12-14T07:54:20;5.90;99.90
53264;DHT22;39153;52.680;6.172;2023-12-14T07:56:46;5.90;99.90
53264;DHT22;39153;52.680;6.172;2023-12-14T07:59:13;5.90;99.90
53264;DHT22;39153;52.680;6.172;2023-12-14T08:01:38;5.70;99.90
53264;DHT22;39153;52.680;6.172;2023-12-14T08:04:04;5.90;99.90
53264;DHT22;39153;52.680;6.172;2023-12-14T08:06:30;5.90;99.90
53264;DHT22;39153;52.680;6.172;2023-12-14T08:08:56;5.90;99.90
53264;DHT22;39153;52.680;6.172;2023-12-14T08:11:24;5.80;99.90
53264;DHT22;39153;52.680;6.172;2023-12-14T08:13:50;5.60;99.90
53264;DHT22;39153;52.680;6.172;2023-12-14T08:16:15;6.10;99.90
53264;DHT22;39153;52.680;6.172;2023-12-14T08:18:43;5.90;99.90
53264;DHT22;39153;52.680;6.172;2023-12-14T08:21:11;5.50;99.90
53264;DHT22;39153;52.680;6.172;2023-12-14T08:23:37;5.70;99.90
53264;DHT22;39153;52.680;6.172;2023-12-14T08:26:03;5.60;99.90
53264;DHT22;39153;52.680;6.172;2023-12-14T08:28:29;5.70;99.90
53264;DHT22;39153;52.680;6.172;2023-12-14T08:30:55;5.60;99.90
53264;DHT22;39153;52.680;6.172;2023-12-14T08:33:23;6.20;99.90
53264;DHT22;39153;52.680;6.172;2023-12-14T08:35:49;6.20;99.90
53264;DHT22;39153;52.680;6.172;2023-12-14T08:38:15;6.20;99.90
53264;DHT22;39153;52.680;6.172;2023-12-14T08:40:42;6.30;99.90
53264;DHT22;39153;52.680;6.172;2023-12-14T08:43:07;6.20;99.90
53264;DHT22;39153;52.680;6.172;2023-12-14T08:45:33;6.30;99.90
53264;DHT22;39153;52.680;6.172;2023-12-14T08:47:59;6.30;99.90
53264;DHT22;39153;52.680;6.172;2023-12-14T08:50:25;6.00;99.90
53264;DHT22;39153;52.680;6.172;2023-12-14T08:52:52;5.70;99.90
53264;DHT22;39153;52.680;6.172;2023-12-14T08:55:18;6.40;99.90
53264;DHT22;39153;52.680;6.172;2023-12-14T08:57:44;6.20;99.90
53264;DHT22;39153;52.680;6.172;2023-12-14T09:00:10;5.70;99.90
53264;DHT22;39153;52.680;6.172;2023-12-14T09:02:36;5.70;99.90
53264;DHT22;39153;52.680;6.172;2023-12-14T09:05:02;6.20;99.90
53264;DHT22;39153;52.680;6.172;2023-12-14T09:07:30;5.90;99.90
53264;DHT22;39153;52.680;6.172;2023-12-14T09:09:56;6.40;99.90
53264;DHT22;39153;52.680;6.172;2023-12-14T09:12:21;6.70;99.90
53264;DHT22;39153;52.680;6.172;2023-12-14T09:14:47;6.30;99.90
53264;DHT22;39153;52.680;6.172;2023-12-14T09:17:13;5.80;99.90
53264;DHT22;39153;52.680;6.172;2023-12-14T09:19:38;6.00;99.90
53264;DHT22;39153;52.680;6.172;2023-12-14T09:22:04;5.90;99.90
53264;DHT22;39153;52.680;6.172;2023-12-14T09:24:30;5.90;99.90
53264;DHT22;39153;52.680;6.172;2023-12-14T09:26:56;6.00;99.90
53264;DHT22;39153;52.680;6.172;2023-12-14T09:29:21;5.90;99.90
53264;DHT22;39153;52.680;6.172;2023-12-14T09:31:47;6.40;99.90
53264;DHT22;39153;52.680;6.172;2023-12-14T09:34:13;6.40;99.90
53264;DHT22;39153;52.680;6.172;2023-12-14T09:36:39;6.30;99.90
53264;DHT22;39153;52.680;6.172;2023-12-14T09:39:05;6.60;99.90
53264;DHT22;39153;52.680;6.172;2023-12-14T09:41:36;6.50;99.90
53264;DHT22;39153;52.680;6.172;2023-12-14T09:44:04;6.40;99.90
53264;DHT22;39153;52.680;6.172;2023-12-14T09:46:33;6.40;99.90
53264;DHT22;39153;52.680;6.172;2023-12-14T09:49:00;6.50;99.90
53264;DHT22;39153;52.680;6.172;2023-12-14T09:51:27;6.60;99.90
53264;DHT22;39153;52.680;6.172;2023-12-14T09:53:53;5.80;99.90
53264;DHT22;39153;52.680;6.172;2023-12-14T09:56:27;5.90;99.90
53264;DHT22;39153;52.680;6.172;2023-12-14T09:58:53;6.40;99.90
53264;DHT22;39153;52.680;6.172;2023-12-14T10:01:26;6.50;99.90
53264;DHT22;39153;52.680;6.172;2023-12-14T10:04:08;6.50;99.90
53264;DHT22;39153;52.680;6.172;2023-12-14T10:06:34;6.50;99.90
53264;DHT22;39153;52.680;6.172;2023-12-14T10:09:00;5.90;99.90
53264;DHT22;39153;52.680;6.172;2023-12-14T10:11:26;6.50;99.90
53264;DHT22;39153;52.680;6.172;2023-12-14T10:13:52;6.50;99.90
53264;DHT22;39153;52.680;6.172;2023-12-14T10:16:32;6.60;99.90
53264;DHT22;39153;52.680;6.172;2023-12-14T10:18:59;6.30;99.90
53264;DHT22;39153;52.680;6.172;2023-12-14T10:21:28;6.60;99.90
53264;DHT22;39153;52.680;6.172;2023-12-14T10:23:57;6.20;99.90
53264;DHT22;39153;52.680;6.172;2023-12-14T10:26:24;6.50;99.90
53264;DHT22;39153;52.680;6.172;2023-12-14T10:28:54;6.60;99.90
53264;DHT22;39153;52.680;6.172;2023-12-14T10:31:20;6.30;99.90
53264;DHT22;39153;52.680;6.172;2023-12-14T10:33:47;6.10;99.90
53264;DHT22;39153;52.680;6.172;2023-12-14T10:36:13;6.20;99.90
53264;DHT22;39153;52.680;6.172;2023-12-14T10:38:40;6.10;99.90
53264;DHT22;39153;52.680;6.172;2023-12-14T10:41:09;6.30;99.90
53264;DHT22;39153;52.680;6.172;2023-12-14T10:43:37;6.20;99.90
53264;DHT22;39153;52.680;6.172;2023-12-14T10:46:07;6.50;99.90
53264;DHT22;39153;52.680;6.172;2023-12-14T10:48:35;6.80;99.90
53264;DHT22;39153;52.680;6.172;2023-12-14T10:51:03;6.70;99.90
53264;DHT22;39153;52.680;6.172;2023-12-14T10:53:31;6.80;99.90
53264;DHT22;39153;52.680;6.172;2023-12-14T10:55:59;6.50;99.90
53264;DHT22;39153;52.680;6.172;2023-12-14T10:58:25;6.90;99.90
53264;DHT22;39153;52.680;6.172;2023-12-14T11:01:02;7.10;99.90
53264;DHT22;39153;52.680;6.172;2023-12-14T11:03:33;6.70;99.90
53264;DHT22;39153;52.680;6.172;2023-12-14T11:06:00;7.30;99.90
53264;DHT22;39153;52.680;6.172;2023-12-14T11:08:25;7.20;99.90
53264;DHT22;39153;52.680;6.172;2023-12-14T11:11:03;7.10;99.90
53264;DHT22;39153;52.680;6.172;2023-12-14T11:13:35;7.00;99.90
53264;DHT22;39153;52.680;6.172;2023-12-14T11:16:04;7.10;99.90
53264;DHT22;39153;52.680;6.172;2023-12-14T11:18:30;6.90;99.90
53264;DHT22;39153;52.680;6.172;2023-12-14T11:20:58;6.90;99.90
53264;DHT22;39153;52.680;6.172;2023-12-14T11:25:54;7.10;99.90
53264;DHT22;39153;52.680;6.172;2023-12-14T11:28:20;7.20;99.90
53264;DHT22;39153;52.680;6.172;2023-12-14T11:30:46;7.60;99.90
53264;DHT22;39153;52.680;6.172;2023-12-14T11:33:13;7.40;99.90
53264;DHT22;39153;52.680;6.172;2023-12-14T11:35:39;7.50;99.90
53264;DHT22;39153;52.680;6.172;2023-12-14T11:38:05;7.40;99.90
53264;DHT22;39153;52.680;6.172;2023-12-14T11:40:38;7.40;99.90
53264;DHT22;39153;52.680;6.172;2023-12-14T11:43:04;7.40;99.90
53264;DHT22;39153;52.680;6.172;2023-12-14T11:45:38;7.70;99.90
53264;DHT22;39153;52.680;6.172;2023-12-14T11:48:04;7.60;99.90
53264;DHT22;39153;52.680;6.172;2023-12-14T11:50:34;7.50;99.90
53264;DHT22;39153;52.680;6.172;2023-12-14T11:53:04;7.30;99.90
53264;DHT22;39153;52.680;6.172;2023-12-14T11:55:30;7.40;99.90
53264;DHT22;39153;52.680;6.172;2023-12-14T11:57:56;7.30;99.90
53264;DHT22;39153;52.680;6.172;2023-12-14T12:00:27;7.40;99.90
53264;DHT22;39153;52.680;6.172;2023-12-14T12:05:45;7.50;99.90
53264;DHT22;39153;52.680;6.172;2023-12-14T12:08:12;8.10;99.90
53264;DHT22;39153;52.680;6.172;2023-12-14T12:10:39;7.70;99.90
53264;DHT22;39153;52.680;6.172;2023-12-14T12:13:07;7.80;99.90
53264;DHT22;39153;52.680;6.172;2023-12-14T12:15:34;7.80;99.90
53264;DHT22;39153;52.680;6.172;2023-12-14T12:18:17;7.80;99.90
53264;DHT22;39153;52.680;6.172;2023-12-14T12:20:43;8.20;99.90
53264;DHT22;39153;52.680;6.172;2023-12-14T12:23:09;7.80;99.90
53264;DHT22;39153;52.680;6.172;2023-12-14T12:25:35;7.70;99.90
53264;DHT22;39153;52.680;6.172;2023-12-14T12:28:02;7.80;99.90
53264;DHT22;39153;52.680;6.172;2023-12-14T12:30:29;7.80;99.90
53264;DHT22;39153;52.680;6.172;2023-12-14T12:32:55;7.60;99.90
53264;DHT22;39153;52.680;6.172;2023-12-14T12:35:22;7.60;99.90
53264;DHT22;39153;52.680;6.172;2023-12-14T12:37:48;7.60;99.90
53264;DHT22;39153;52.680;6.172;2023-12-14T12:40:19;7.60;99.90
53264;DHT22;39153;52.680;6.172;2023-12-14T12:42:46;7.60;99.90
53264;DHT22;39153;52.680;6.172;2023-12-14T12:45:14;7.30;99.90
53264;DHT22;39153;52.680;6.172;2023-12-14T12:47:41;7.30;99.90
53264;DHT22;39153;52.680;6.172;2023-12-14T12:50:07;7.30;99.90
53264;DHT22;39153;52.680;6.172;2023-12-14T12:52:33;7.50;99.90
53264;DHT22;39153;52.680;6.172;2023-12-14T12:54:59;7.30;99.90
53264;DHT22;39153;52.680;6.172;2023-12-14T12:57:25;7.30;99.90
53264;DHT22;39153;52.680;6.172;2023-12-14T12:59:51;7.50;99.90
53264;DHT22;39153;52.680;6.172;2023-12-14T13:02:17;7.40;99.90
53264;DHT22;39153;52.680;6.172;2023-12-14T13:04:43;7.30;99.90
53264;DHT22;39153;52.680;6.172;2023-12-14T13:07:08;7.20;99.90
53264;DHT22;39153;52.680;6.172;2023-12-14T13:09:34;7.30;99.90
53264;DHT22;39153;52.680;6.172;2023-12-14T13:12:00;7.40;99.90
53264;DHT22;39153;52.680;6.172;2023-12-14T13:14:26;7.40;99.90
53264;DHT22;39153;52.680;6.172;2023-12-14T13:16:51;7.30;99.90
53264;DHT22;39153;52.680;6.172;2023-12-14T13:19:17;7.60;99.90
53264;DHT22;39153;52.680;6.172;2023-12-14T13:21:43;7.30;99.90
53264;DHT22;39153;52.680;6.172;2023-12-14T13:24:08;7.40;99.90
53264;DHT22;39153;52.680;6.172;2023-12-14T13:26:34;7.40;99.90
53264;DHT22;39153;52.680;6.172;2023-12-14T13:29:00;7.30;99.90
53264;DHT22;39153;52.680;6.172;2023-12-14T13:31:25;7.10;99.90
53264;DHT22;39153;52.680;6.172;2023-12-14T13:33:51;7.30;99.90
53264;DHT22;39153;52.680;6.172;2023-12-14T13:36:18;7.10;99.90
53264;DHT22;39153;52.680;6.172;2023-12-14T13:38:45;7.20;99.90
53264;DHT22;39153;52.680;6.172;2023-12-14T13:41:11;7.10;99.90
53264;DHT22;39153;52.680;6.172;2023-12-14T13:43:37;7.20;99.90
53264;DHT22;39153;52.680;6.172;2023-12-14T13:46:03;7.30;99.90
53264;DHT22;39153;52.680;6.172;2023-12-14T13:48:29;7.30;99.90
53264;DHT22;39153;52.680;6.172;2023-12-14T13:50:55;7.10;99.90
53264;DHT22;39153;52.680;6.172;2023-12-14T13:53:21;7.20;99.90
53264;DHT22;39153;52.680;6.172;2023-12-14T13:55:48;7.10;99.90
53264;DHT22;39153;52.680;6.172;2023-12-14T13:58:15;7.60;99.90
53264;DHT22;39153;52.680;6.172;2023-12-14T14:00:41;7.20;99.90
53264;DHT22;39153;52.680;6.172;2023-12-14T14:03:07;6.90;99.90
53264;DHT22;39153;52.680;6.172;2023-12-14T14:05:33;7.00;99.90
53264;DHT22;39153;52.680;6.172;2023-12-14T14:08:00;7.00;99.90
53264;DHT22;39153;52.680;6.172;2023-12-14T14:10:26;6.90;99.90
53264;DHT22;39153;52.680;6.172;2023-12-14T14:12:51;6.80;99.90
53264;DHT22;39153;52.680;6.172;2023-12-14T14:15:17;7.00;99.90
53264;DHT22;39153;52.680;6.172;2023-12-14T14:17:43;7.00;99.90
53264;DHT22;39153;52.680;6.172;2023-12-14T14:20:09;7.00;99.90
53264;DHT22;39153;52.680;6.172;2023-12-14T14:22:38;6.80;99.90
53264;DHT22;39153;52.680;6.172;2023-12-14T14:25:05;7.00;99.90
53264;DHT22;39153;52.680;6.172;2023-12-14T14:27:32;6.90;99.90
53264;DHT22;39153;52.680;6.172;2023-12-14T14:29:58;6.80;99.90
53264;DHT22;39153;52.680;6.172;2023-12-14T14:32:24;6.70;99.90
53264;DHT22;39153;52.680;6.172;2023-12-14T14:34:50;7.00;99.90
53264;DHT22;39153;52.680;6.172;2023-12-14T14:37:16;7.00;99.90
53264;DHT22;39153;52.680;6.172;2023-12-14T14:39:42;6.90;99.90
53264;DHT22;39153;52.680;6.172;2023-12-14T14:42:09;7.30;99.90
53264;DHT22;39153;52.680;6.172;2023-12-14T14:44:35;6.90;99.90
53264;DHT22;39153;52.680;6.172;2023-12-14T14:47:01;6.90;99.90
53264;DHT22;39153;52.680;6.172;2023-12-14T14:49:27;6.90;99.90
53264;DHT22;39153;52.680;6.172;2023-12-14T14:51:53;6.80;99.90
53264;DHT22;39153;52.680;6.172;2023-12-14T14:54:19;6.70;99.90
53264;DHT22;39153;52.680;6.172;2023-12-14T14:56:44;6.50;99.90
53264;DHT22;39153;52.680;6.172;2023-12-14T14:59:10;6.70;99.90
53264;DHT22;39153;52.680;6.172;2023-12-14T15:01:37;6.50;99.90
53264;DHT22;39153;52.680;6.172;2023-12-14T15:04:03;6.50;99.90
53264;DHT22;39153;52.680;6.172;2023-12-14T15:06:29;6.70;99.90
53264;DHT22;39153;52.680;6.172;2023-12-14T15:08:54;6.70;99.90
53264;DHT22;39153;52.680;6.172;2023-12-14T15:11:20;6.70;99.90
53264;DHT22;39153;52.680;6.172;2023-12-14T15:13:46;7.20;99.90
53264;DHT22;39153;52.680;6.172;2023-12-14T15:16:11;6.70;99.90
53264;DHT22;39153;52.680;6.172;2023-12-14T15:18:38;6.50;99.90
53264;DHT22;39153;52.680;6.172;2023-12-14T15:21:10;6.50;99.90
53264;DHT22;39153;52.680;6.172;2023-12-14T15:23:37;6.70;99.90
53264;DHT22;39153;52.680;6.172;2023-12-14T15:26:03;6.60;99.90
53264;DHT22;39153;52.680;6.172;2023-12-14T15:28:29;6.70;99.90
53264;DHT22;39153;52.680;6.172;2023-12-14T15:30:54;6.40;99.90
53264;DHT22;39153;52.680;6.172;2023-12-14T15:33:20;6.40;99.90
53264;DHT22;39153;52.680;6.172;2023-12-14T15:35:46;6.50;99.90
53264;DHT22;39153;52.680;6.172;2023-12-14T15:38:12;6.50;99.90
53264;DHT22;39153;52.680;6.172;2023-12-14T15:40:38;7.00;99.90
53264;DHT22;39153;52.680;6.172;2023-12-14T15:43:07;6.50;99.90
53264;DHT22;39153;52.680;6.172;2023-12-14T15:45:32;6.30;99.90